Time;durP1;ratioP1;P1;durP2;ratioP2;P2;SDS_P1;SDS_P2;PMS_P1;PMS_P2;Temp;Humidity;BMP_temperature;BMP_pressure;BME280_temperature;BME280_humidity;BME280_pressure;Samples;Min_cycle;Max_cycle;Signal;HPM_P1;HPM_P2
2022/02/20 00:00:48;;;;;;;2.67;1.90;;;;;;;;;;2066637;28;20026;-66
2022/02/20 00:02:07;;;;;;;1.90;1.70;;;;;;;;;;2067724;28;20030;-65
2022/02/20 00:03:26;;;;;;;5.43;2.03;;;;;;;;;;2067349;28;20026;-66
2022/02/20 00:04:45;;;;;;;4.43;2.03;;;;;;;;;;2067821;28;20116;-66
2022/02/20 00:06:04;;;;;;;3.20;1.70;;;;;;;;;;2066780;28;20026;-66
2022/02/20 00:07:23;;;;;;;1.80;1.20;;;;;;;;;;2065989;28;20485;-66
2022/02/20 00:08:42;;;;;;;2.35;1.77;;;;;;;;;;2067096;28;20034;-66
2022/02/20 00:10:01;;;;;;;2.50;1.65;;;;;;;;;;2067169;28;20084;-66
2022/02/20 00:11:20;;;;;;;1.48;1.30;;;;;;;;;;2066989;28;20050;-66
2022/02/20 00:12:38;;;;;;;2.40;1.83;;;;;;;;;;2066455;28;20042;-66
2022/02/20 00:13:57;;;;;;;1.98;1.55;;;;;;;;;;2069682;28;20026;-66
2022/02/20 00:15:16;;;;;;;2.35;1.80;;;;;;;;;;2068653;28;20410;-66
2022/02/20 00:16:36;;;;;;;4.10;1.70;;;;;;;;;;2066949;28;20038;-66
2022/02/20 00:17:55;;;;;;;1.65;1.23;;;;;;;;;;2066912;28;20042;-65
2022/02/20 00:19:14;;;;;;;2.55;1.70;;;;;;;;;;2066277;28;20026;-65
2022/02/20 00:20:33;;;;;;;2.10;1.90;;;;;;;;;;2108835;28;20024;-66
2022/02/20 00:21:51;;;;;;;2.80;1.50;;;;;;;;;;2083048;28;20023;-66
2022/02/20 00:23:12;;;;;;;1.92;1.58;;;;;;;;;;2066834;28;20124;-66
2022/02/20 00:24:31;;;;;;;1.60;1.50;;;;;;;;;;2068744;28;20113;-66
2022/02/20 00:25:50;;;;;;;1.45;1.35;;;;;;;;;;2067059;28;20046;-67
2022/02/20 00:27:09;;;;;;;2.85;1.60;;;;;;;;;;2067134;28;20062;-67
2022/02/20 00:28:28;;;;;;;1.50;1.40;;;;;;;;;;2068005;28;20041;-66
2022/02/20 00:29:50;;;;;;;1.60;1.38;;;;;;;;;;2067099;28;20030;-64
2022/02/20 00:31:09;;;;;;;1.50;1.40;;;;;;;;;;2067011;28;20023;-66
2022/02/20 00:32:28;;;;;;;2.25;1.73;;;;;;;;;;2067940;28;20121;-66
2022/02/20 00:33:46;;;;;;;2.20;1.80;;;;;;;;;;2066024;28;20026;-66
2022/02/20 00:35:07;;;;;;;2.97;1.50;;;;;;;;;;2067825;28;20034;-66
2022/02/20 00:36:26;;;;;;;2.75;1.50;;;;;;;;;;2066898;28;20027;-66
2022/02/20 00:37:45;;;;;;;2.40;1.80;;;;;;;;;;2067350;28;20038;-66
2022/02/20 00:39:04;;;;;;;2.53;1.50;;;;;;;;;;2066341;28;20592;-67
2022/02/20 00:40:23;;;;;;;4.55;1.75;;;;;;;;;;2066393;28;20054;-66
2022/02/20 00:41:42;;;;;;;3.55;1.48;;;;;;;;;;2067043;28;20505;-66
2022/02/20 00:43:01;;;;;;;2.17;1.35;;;;;;;;;;2067349;28;20038;-65
2022/02/20 00:44:19;;;;;;;5.57;1.55;;;;;;;;;;2067274;28;20065;-64
2022/02/20 00:45:39;;;;;;;3.40;1.83;;;;;;;;;;2067124;28;20030;-66
2022/02/20 00:46:57;;;;;;;3.60;1.70;;;;;;;;;;2067201;28;20034;-65
2022/02/20 00:48:20;;;;;;;2.45;1.70;;;;;;;;;;2067360;28;20070;-66
2022/02/20 00:49:39;;;;;;;2.40;1.58;;;;;;;;;;2066975;28;20030;-66
2022/02/20 00:50:58;;;;;;;3.08;1.85;;;;;;;;;;2067286;28;20026;-66
2022/02/20 00:52:17;;;;;;;2.50;1.73;;;;;;;;;;2066499;28;20034;-65
2022/02/20 00:53:36;;;;;;;2.67;1.63;;;;;;;;;;2069567;28;20026;-65
2022/02/20 00:54:55;;;;;;;3.05;1.65;;;;;;;;;;2067018;28;20034;-66
2022/02/20 00:56:14;;;;;;;2.67;1.90;;;;;;;;;;2066635;28;20034;-66
2022/02/20 00:57:33;;;;;;;2.78;1.85;;;;;;;;;;2068913;28;20500;-65
2022/02/20 00:58:52;;;;;;;2.13;1.55;;;;;;;;;;2068773;28;20046;-66
2022/02/20 01:00:12;;;;;;;2.15;1.55;;;;;;;;;;2065440;28;20463;-66
2022/02/20 01:01:31;;;;;;;2.30;2.10;;;;;;;;;;2066285;28;20034;-66
2022/02/20 01:02:50;;;;;;;2.60;2.20;;;;;;;;;;2066552;28;20034;-66
2022/02/20 01:04:09;;;;;;;1.63;1.35;;;;;;;;;;2067828;28;20038;-66
2022/02/20 01:05:28;;;;;;;2.45;1.48;;;;;;;;;;2067653;28;20034;-66
2022/02/20 01:06:47;;;;;;;2.25;1.70;;;;;;;;;;2066518;28;20066;-65
2022/02/20 01:08:07;;;;;;;4.18;1.73;;;;;;;;;;2066730;28;20030;-66
2022/02/20 01:09:26;;;;;;;3.85;1.88;;;;;;;;;;2065860;28;20149;-66
2022/02/20 01:10:45;;;;;;;2.80;1.77;;;;;;;;;;2067521;28;20058;-66
2022/02/20 01:12:04;;;;;;;2.67;2.03;;;;;;;;;;2067937;28;20030;-66
2022/02/20 01:13:23;;;;;;;2.35;1.60;;;;;;;;;;2067991;28;20035;-66
2022/02/20 01:14:43;;;;;;;2.42;1.88;;;;;;;;;;2067157;28;20500;-66
2022/02/20 01:16:02;;;;;;;3.70;2.03;;;;;;;;;;2070937;28;20034;-65
2022/02/20 01:17:22;;;;;;;3.35;1.70;;;;;;;;;;2068382;28;20034;-66
2022/02/20 01:18:41;;;;;;;3.17;1.73;;;;;;;;;;2066982;28;20034;-66
2022/02/20 01:20:00;;;;;;;3.05;1.80;;;;;;;;;;2067319;28;20388;-66
2022/02/20 01:21:19;;;;;;;2.80;1.98;;;;;;;;;;2068193;28;20026;-66
2022/02/20 01:22:38;;;;;;;4.80;1.80;;;;;;;;;;2068753;28;20076;-66
2022/02/20 01:23:57;;;;;;;1.55;1.45;;;;;;;;;;2069446;28;20030;-66
2022/02/20 01:25:16;;;;;;;1.60;1.50;;;;;;;;;;2065934;28;20125;-65
2022/02/20 01:26:34;;;;;;;2.78;1.67;;;;;;;;;;2065456;28;20046;-66
2022/02/20 01:27:53;;;;;;;2.42;1.63;;;;;;;;;;2108811;28;20024;-66
2022/02/20 01:29:12;;;;;;;1.88;1.60;;;;;;;;;;2080813;28;20112;-66
2022/02/20 01:30:31;;;;;;;2.55;1.75;;;;;;;;;;2066838;28;20083;-66
2022/02/20 01:31:50;;;;;;;1.88;1.77;;;;;;;;;;2071025;28;20025;-66
2022/02/20 01:33:09;;;;;;;1.70;1.60;;;;;;;;;;2065056;28;20027;-66
2022/02/20 01:34:27;;;;;;;2.15;1.95;;;;;;;;;;2067189;28;20027;-66
2022/02/20 01:35:46;;;;;;;3.25;1.50;;;;;;;;;;2067742;28;20071;-67
2022/02/20 01:37:06;;;;;;;2.70;1.80;;;;;;;;;;2068107;28;20069;-67
2022/02/20 01:38:25;;;;;;;2.58;1.50;;;;;;;;;;2064815;28;20038;-67
2022/02/20 01:39:43;;;;;;;2.00;1.55;;;;;;;;;;2065989;28;20435;-67
2022/02/20 01:41:03;;;;;;;2.28;1.48;;;;;;;;;;2067177;28;20433;-67
2022/02/20 01:42:22;;;;;;;1.98;1.63;;;;;;;;;;2066696;28;20038;-66
2022/02/20 01:43:41;;;;;;;2.00;1.55;;;;;;;;;;2067991;28;20034;-66
2022/02/20 01:45:00;;;;;;;2.67;1.50;;;;;;;;;;2067919;28;20030;-67
2022/02/20 01:46:19;;;;;;;2.80;1.83;;;;;;;;;;2067220;28;20034;-67
2022/02/20 01:47:38;;;;;;;2.72;1.80;;;;;;;;;;2067036;28;20030;-67
2022/02/20 01:48:57;;;;;;;2.20;1.67;;;;;;;;;;2068689;28;20445;-66
2022/02/20 01:50:16;;;;;;;3.67;1.85;;;;;;;;;;2067068;28;20026;-68
2022/02/20 01:51:35;;;;;;;2.90;1.95;;;;;;;;;;2067626;28;20030;-66
2022/02/20 01:52:53;;;;;;;2.55;1.70;;;;;;;;;;2065362;28;20086;-67
2022/02/20 01:54:12;;;;;;;2.80;1.60;;;;;;;;;;2066509;28;20026;-67
2022/02/20 01:55:32;;;;;;;2.20;1.75;;;;;;;;;;2067265;28;20472;-67
2022/02/20 01:56:53;;;;;;;3.45;1.90;;;;;;;;;;2067131;28;20479;-67
2022/02/20 01:58:12;;;;;;;2.33;1.60;;;;;;;;;;2067281;28;20026;-66
2022/02/20 01:59:31;;;;;;;3.40;1.80;;;;;;;;;;2066875;28;20034;-66
2022/02/20 02:00:50;;;;;;;3.88;2.15;;;;;;;;;;2066426;28;20042;-66
2022/02/20 02:02:08;;;;;;;2.15;1.95;;;;;;;;;;2066312;28;20039;-66
2022/02/20 02:03:27;;;;;;;4.07;2.17;;;;;;;;;;2067554;28;20034;-65
2022/02/20 02:04:47;;;;;;;2.40;2.20;;;;;;;;;;2067412;28;20403;-66
2022/02/20 02:06:06;;;;;;;5.43;2.78;;;;;;;;;;2066733;28;20030;-66
2022/02/20 02:07:28;;;;;;;2.53;1.98;;;;;;;;;;2067524;28;20030;-66
2022/02/20 02:08:47;;;;;;;2.83;2.00;;;;;;;;;;2067147;28;20571;-66
2022/02/20 02:10:06;;;;;;;6.45;2.33;;;;;;;;;;2066491;28;20023;-65
2022/02/20 02:11:26;;;;;;;2.42;1.90;;;;;;;;;;2067714;28;20492;-66
2022/02/20 02:12:45;;;;;;;2.30;2.10;;;;;;;;;;2067747;28;20038;-66
2022/02/20 02:14:03;;;;;;;2.10;2.00;;;;;;;;;;2066356;28;20023;-64
2022/02/20 02:15:22;;;;;;;4.18;2.17;;;;;;;;;;2067477;28;20030;-65
2022/02/20 02:16:41;;;;;;;3.45;2.17;;;;;;;;;;2066026;28;20042;-66
2022/02/20 02:18:00;;;;;;;2.10;1.90;;;;;;;;;;2066561;28;20038;-66
2022/02/20 02:19:19;;;;;;;4.63;2.10;;;;;;;;;;2067408;28;20035;-66
2022/02/20 02:20:38;;;;;;;1.95;1.80;;;;;;;;;;2068299;28;20046;-66
2022/02/20 02:21:57;;;;;;;2.15;1.95;;;;;;;;;;2066984;28;20030;-66
2022/02/20 02:23:19;;;;;;;5.53;2.50;;;;;;;;;;2066918;28;20042;-65
2022/02/20 02:24:38;;;;;;;2.75;1.80;;;;;;;;;;2067157;28;20029;-65
2022/02/20 02:25:57;;;;;;;2.70;1.95;;;;;;;;;;2067609;28;20034;-65
2022/02/20 02:27:16;;;;;;;5.75;2.22;;;;;;;;;;2068712;28;20026;-65
2022/02/20 02:28:36;;;;;;;2.75;2.33;;;;;;;;;;2067848;28;20047;-65
2022/02/20 02:29:56;;;;;;;2.40;2.20;;;;;;;;;;2068184;28;20018;-65
2022/02/20 02:31:16;;;;;;;2.30;1.95;;;;;;;;;;2068149;28;20546;-66
2022/02/20 02:32:35;;;;;;;2.70;2.13;;;;;;;;;;2067793;28;20030;-67
2022/02/20 02:33:54;;;;;;;5.15;2.13;;;;;;;;;;2068001;28;20037;-67
2022/02/20 02:35:13;;;;;;;3.05;1.90;;;;;;;;;;2069174;28;20026;-66
2022/02/20 02:36:32;;;;;;;2.28;2.10;;;;;;;;;;2067507;28;20030;-66
2022/02/20 02:37:53;;;;;;;2.75;2.15;;;;;;;;;;2068197;28;20464;-65
2022/02/20 02:39:11;;;;;;;3.67;2.10;;;;;;;;;;2064910;28;20042;-66
2022/02/20 02:40:31;;;;;;;5.72;2.35;;;;;;;;;;2068973;28;20042;-66
2022/02/20 02:41:50;;;;;;;3.92;2.30;;;;;;;;;;2067929;28;20034;-66
2022/02/20 02:43:09;;;;;;;4.15;1.92;;;;;;;;;;2067003;28;20038;-65
2022/02/20 02:44:28;;;;;;;3.70;2.58;;;;;;;;;;2068537;28;20045;-65
2022/02/20 02:45:47;;;;;;;2.95;1.77;;;;;;;;;;2068857;28;20468;-66
2022/02/20 02:47:07;;;;;;;3.95;2.25;;;;;;;;;;2068327;28;20034;-66
2022/02/20 02:48:27;;;;;;;4.90;2.42;;;;;;;;;;2068546;28;20105;-66
2022/02/20 02:49:46;;;;;;;2.85;2.15;;;;;;;;;;2069062;28;20038;-65
2022/02/20 02:51:05;;;;;;;3.33;2.17;;;;;;;;;;2068047;28;20023;-66
2022/02/20 02:52:24;;;;;;;3.17;2.10;;;;;;;;;;2067958;28;20485;-66
2022/02/20 02:53:43;;;;;;;4.60;2.58;;;;;;;;;;2067574;28;20031;-66
2022/02/20 02:55:02;;;;;;;3.20;2.15;;;;;;;;;;2067530;28;20022;-66
2022/02/20 02:56:22;;;;;;;3.65;2.67;;;;;;;;;;2069286;28;20038;-66
2022/02/20 02:57:41;;;;;;;5.63;2.30;;;;;;;;;;2067907;28;20037;-66
2022/02/20 02:59:00;;;;;;;2.67;2.10;;;;;;;;;;2066692;28;20496;-66
2022/02/20 03:00:19;;;;;;;3.50;2.05;;;;;;;;;;2068950;28;20045;-68
2022/02/20 03:01:38;;;;;;;3.25;2.20;;;;;;;;;;2067496;28;20504;-66
2022/02/20 03:02:57;;;;;;;2.78;2.38;;;;;;;;;;2068331;28;20042;-66
2022/02/20 03:04:16;;;;;;;4.18;2.20;;;;;;;;;;2068031;28;20038;-66
2022/02/20 03:05:35;;;;;;;2.42;2.10;;;;;;;;;;2067348;28;20050;-66
2022/02/20 03:06:54;;;;;;;3.50;2.28;;;;;;;;;;2068702;28;20030;-66
2022/02/20 03:08:13;;;;;;;2.38;2.17;;;;;;;;;;2069472;28;20427;-66
2022/02/20 03:09:32;;;;;;;5.82;2.60;;;;;;;;;;2066475;28;20145;-66
2022/02/20 03:10:51;;;;;;;4.15;2.30;;;;;;;;;;2068154;28;20496;-66
2022/02/20 03:12:10;;;;;;;4.32;2.40;;;;;;;;;;2068666;28;20458;-66
2022/02/20 03:13:29;;;;;;;4.00;2.38;;;;;;;;;;2069281;28;20038;-66
2022/02/20 03:14:48;;;;;;;2.97;2.58;;;;;;;;;;2069023;28;20023;-66
2022/02/20 03:16:07;;;;;;;4.85;2.72;;;;;;;;;;2068834;28;20042;-65
2022/02/20 03:17:26;;;;;;;3.05;2.17;;;;;;;;;;2071788;28;20034;-65
2022/02/20 03:18:45;;;;;;;6.97;2.40;;;;;;;;;;2068171;28;20031;-66
2022/02/20 03:20:04;;;;;;;4.18;2.45;;;;;;;;;;2070162;28;20419;-66
2022/02/20 03:21:23;;;;;;;6.90;2.47;;;;;;;;;;2072028;28;20128;-66
2022/02/20 03:22:42;;;;;;;5.93;2.72;;;;;;;;;;2069760;28;20039;-66
2022/02/20 03:24:01;;;;;;;5.85;2.90;;;;;;;;;;2068597;28;20057;-66
2022/02/20 03:25:20;;;;;;;3.60;2.90;;;;;;;;;;2068719;28;20568;-66
2022/02/20 03:26:39;;;;;;;5.18;2.70;;;;;;;;;;2067249;28;20034;-66
2022/02/20 03:27:57;;;;;;;5.38;3.38;;;;;;;;;;2069156;28;20042;-66
2022/02/20 03:29:16;;;;;;;4.57;3.10;;;;;;;;;;2067147;28;20035;-66
2022/02/20 03:30:35;;;;;;;7.05;3.40;;;;;;;;;;2071156;28;20038;-66
2022/02/20 03:31:54;;;;;;;4.88;2.90;;;;;;;;;;2068601;28;20426;-67
2022/02/20 03:33:13;;;;;;;6.60;3.25;;;;;;;;;;2071224;28;20418;-66
2022/02/20 03:34:32;;;;;;;5.57;3.05;;;;;;;;;;2068845;28;20038;-66
2022/02/20 03:35:52;;;;;;;5.15;3.60;;;;;;;;;;2067969;28;20034;-66
2022/02/20 03:37:10;;;;;;;5.55;2.95;;;;;;;;;;2068664;28;20026;-66
2022/02/20 03:38:30;;;;;;;5.95;3.17;;;;;;;;;;2072865;28;20038;-66
2022/02/20 03:39:49;;;;;;;5.93;3.33;;;;;;;;;;2069538;28;20491;-66
2022/02/20 03:41:08;;;;;;;6.30;2.88;;;;;;;;;;2067342;28;20121;-66
2022/02/20 03:42:27;;;;;;;5.07;3.13;;;;;;;;;;2070860;28;20033;-66
2022/02/20 03:43:45;;;;;;;3.42;3.13;;;;;;;;;;2069224;28;20022;-66
2022/02/20 03:45:05;;;;;;;5.05;3.80;;;;;;;;;;2067293;28;20038;-66
2022/02/20 03:46:24;;;;;;;4.70;3.58;;;;;;;;;;2067950;28;20133;-66
2022/02/20 03:47:43;;;;;;;4.10;3.33;;;;;;;;;;2071208;28;20110;-66
2022/02/20 03:49:02;;;;;;;5.72;3.55;;;;;;;;;;2071385;28;20027;-66
2022/02/20 03:50:22;;;;;;;7.95;4.25;;;;;;;;;;2069480;28;20057;-66
2022/02/20 03:51:41;;;;;;;10.10;4.10;;;;;;;;;;2071563;28;20030;-66
2022/02/20 03:53:00;;;;;;;6.07;3.65;;;;;;;;;;2068954;28;20022;-66
2022/02/20 03:54:18;;;;;;;4.10;2.90;;;;;;;;;;2068843;28;20054;-66
2022/02/20 03:55:38;;;;;;;10.23;4.18;;;;;;;;;;2070405;28;20039;-66
2022/02/20 03:56:56;;;;;;;5.22;3.85;;;;;;;;;;2069192;28;20113;-66
2022/02/20 03:58:15;;;;;;;5.10;3.40;;;;;;;;;;2069875;28;20500;-66
2022/02/20 03:59:34;;;;;;;5.15;3.40;;;;;;;;;;2070733;28;20034;-66
2022/02/20 04:00:53;;;;;;;5.80;4.00;;;;;;;;;;2067914;28;20035;-66
2022/02/20 04:02:12;;;;;;;5.35;3.50;;;;;;;;;;2072426;28;20046;-66
2022/02/20 04:03:31;;;;;;;5.03;4.00;;;;;;;;;;2070417;28;20046;-66
2022/02/20 04:04:50;;;;;;;4.22;3.80;;;;;;;;;;2068849;28;20492;-66
2022/02/20 04:06:09;;;;;;;4.82;4.03;;;;;;;;;;2071663;28;20042;-66
2022/02/20 04:07:28;;;;;;;7.60;4.03;;;;;;;;;;2071894;28;20065;-66
2022/02/20 04:08:47;;;;;;;5.40;3.80;;;;;;;;;;2069422;28;20451;-67
2022/02/20 04:10:07;;;;;;;7.05;4.35;;;;;;;;;;2071472;28;20109;-67
2022/02/20 04:11:26;;;;;;;6.30;3.90;;;;;;;;;;2069441;28;20022;-66
2022/02/20 04:12:46;;;;;;;6.15;3.80;;;;;;;;;;2067336;28;20030;-66
2022/02/20 04:14:04;;;;;;;6.78;4.53;;;;;;;;;;2068844;28;20492;-66
2022/02/20 04:15:24;;;;;;;6.70;4.15;;;;;;;;;;2068376;28;20034;-66
2022/02/20 04:16:42;;;;;;;4.57;3.67;;;;;;;;;;2071526;28;20891;-66
2022/02/20 04:18:01;;;;;;;5.10;3.90;;;;;;;;;;2071067;28;20039;-67
2022/02/20 04:19:20;;;;;;;7.22;3.58;;;;;;;;;;2070496;28;20070;-67
2022/02/20 04:20:39;;;;;;;5.03;3.65;;;;;;;;;;2066798;28;20050;-66
2022/02/20 04:21:58;;;;;;;6.32;3.80;;;;;;;;;;2067484;28;20043;-66
2022/02/20 04:23:17;;;;;;;4.28;3.50;;;;;;;;;;2066977;28;20035;-67
2022/02/20 04:24:36;;;;;;;4.07;3.78;;;;;;;;;;2069372;28;20026;-66
2022/02/20 04:26:00;;;;;;;5.53;3.78;;;;;;;;;;2067795;28;20532;-66
2022/02/20 04:27:19;;;;;;;3.35;3.13;;;;;;;;;;2069354;28;20041;-66
2022/02/20 04:28:40;;;;;;;4.78;3.80;;;;;;;;;;2070044;28;20026;-66
2022/02/20 04:29:59;;;;;;;7.35;4.40;;;;;;;;;;2065737;28;20109;-67
2022/02/20 04:31:18;;;;;;;5.03;4.05;;;;;;;;;;2068926;28;20030;-66
2022/02/20 04:32:37;;;;;;;4.43;3.88;;;;;;;;;;2067285;28;20026;-66
2022/02/20 04:33:57;;;;;;;4.88;3.72;;;;;;;;;;2070332;28;20022;-67
2022/02/20 04:35:16;;;;;;;7.38;4.40;;;;;;;;;;2071070;28;20018;-66
2022/02/20 04:36:36;;;;;;;8.68;3.88;;;;;;;;;;2071357;28;20384;-67
2022/02/20 04:37:55;;;;;;;8.02;4.82;;;;;;;;;;2070745;28;20026;-67
2022/02/20 04:39:14;;;;;;;6.47;4.15;;;;;;;;;;2069099;28;20039;-66
2022/02/20 04:40:33;;;;;;;5.60;4.32;;;;;;;;;;2070667;28;20029;-66
2022/02/20 04:41:52;;;;;;;4.25;3.63;;;;;;;;;;2069726;28;20034;-66
2022/02/20 04:43:10;;;;;;;7.28;4.35;;;;;;;;;;2067761;28;20042;-66
2022/02/20 04:44:29;;;;;;;9.15;4.28;;;;;;;;;;2069238;28;20042;-66
2022/02/20 04:45:48;;;;;;;5.40;3.83;;;;;;;;;;2066904;28;20354;-66
2022/02/20 04:47:07;;;;;;;6.20;4.38;;;;;;;;;;2068034;28;20022;-66
2022/02/20 04:48:26;;;;;;;5.80;4.47;;;;;;;;;;2068937;28;20114;-65
2022/02/20 04:49:45;;;;;;;4.65;4.25;;;;;;;;;;2067830;28;20057;-66
2022/02/20 04:51:03;;;;;;;4.63;3.88;;;;;;;;;;2065388;28;20037;-66
2022/02/20 04:52:22;;;;;;;6.38;4.53;;;;;;;;;;2066492;28;20034;-65
2022/02/20 04:53:41;;;;;;;5.20;4.70;;;;;;;;;;2067493;28;20042;-65
2022/02/20 04:55:00;;;;;;;5.82;5.28;;;;;;;;;;2064805;28;20807;-66
2022/02/20 04:56:19;;;;;;;8.23;4.90;;;;;;;;;;2067578;28;20033;-66
2022/02/20 04:57:39;;;;;;;5.53;5.00;;;;;;;;;;2067015;28;20066;-65
2022/02/20 04:58:58;;;;;;;6.63;5.30;;;;;;;;;;2068971;28;20026;-66
2022/02/20 05:00:17;;;;;;;8.55;5.35;;;;;;;;;;2071829;28;20072;-66
2022/02/20 05:01:37;;;;;;;7.07;5.88;;;;;;;;;;2069449;28;20041;-66
2022/02/20 05:02:56;;;;;;;7.90;5.22;;;;;;;;;;2074215;28;20389;-66
2022/02/20 05:04:15;;;;;;;9.02;5.38;;;;;;;;;;2071112;28;20454;-65
2022/02/20 05:05:37;;;;;;;6.43;5.82;;;;;;;;;;2071418;28;20034;-65
2022/02/20 05:06:56;;;;;;;6.32;5.20;;;;;;;;;;2069074;28;20034;-64
2022/02/20 05:08:15;;;;;;;5.85;5.20;;;;;;;;;;2069048;28;20026;-64
2022/02/20 05:09:34;;;;;;;5.35;4.90;;;;;;;;;;2071439;28;20041;-64
2022/02/20 05:10:53;;;;;;;6.85;4.82;;;;;;;;;;2068455;28;20578;-64
2022/02/20 05:12:12;;;;;;;5.70;5.10;;;;;;;;;;2067034;28;20023;-64
2022/02/20 05:13:31;;;;;;;7.07;5.07;;;;;;;;;;2067086;28;20392;-65
2022/02/20 05:14:50;;;;;;;4.75;4.15;;;;;;;;;;2071428;28;20491;-65
2022/02/20 05:16:09;;;;;;;5.03;4.50;;;;;;;;;;2068785;28;20112;-64
2022/02/20 05:17:28;;;;;;;5.72;5.13;;;;;;;;;;2071845;28;20125;-65
2022/02/20 05:18:47;;;;;;;4.70;4.30;;;;;;;;;;2071865;28;20022;-65
2022/02/20 05:20:06;;;;;;;5.35;4.53;;;;;;;;;;2072417;28;20042;-65
2022/02/20 05:21:25;;;;;;;5.20;4.70;;;;;;;;;;2070368;28;20045;-65
2022/02/20 05:22:44;;;;;;;5.90;4.32;;;;;;;;;;2071353;28;20096;-65
2022/02/20 05:24:03;;;;;;;5.10;4.60;;;;;;;;;;2071223;28;20042;-67
2022/02/20 05:25:22;;;;;;;5.32;4.68;;;;;;;;;;2069816;28;20046;-66
2022/02/20 05:26:41;;;;;;;6.35;4.40;;;;;;;;;;2067395;28;20535;-65
2022/02/20 05:27:59;;;;;;;6.32;4.40;;;;;;;;;;2067046;28;20069;-65
2022/02/20 05:29:18;;;;;;;6.70;4.53;;;;;;;;;;2069814;28;20041;-65
2022/02/20 05:30:37;;;;;;;7.53;4.95;;;;;;;;;;2069764;28;20030;-66
2022/02/20 05:31:56;;;;;;;6.45;5.20;;;;;;;;;;2068759;28;20495;-66
2022/02/20 05:33:15;;;;;;;5.30;4.85;;;;;;;;;;2069285;28;20022;-65
2022/02/20 05:34:34;;;;;;;7.57;5.18;;;;;;;;;;2069204;28;20035;-66
2022/02/20 05:35:53;;;;;;;5.65;4.32;;;;;;;;;;2072213;28;20057;-66
2022/02/20 05:37:11;;;;;;;7.43;4.35;;;;;;;;;;2065555;28;20041;-66
2022/02/20 05:38:30;;;;;;;5.20;3.90;;;;;;;;;;2070540;28;20045;-67
2022/02/20 05:39:50;;;;;;;7.43;3.90;;;;;;;;;;2070621;28;20057;-67
2022/02/20 05:41:08;;;;;;;3.83;3.53;;;;;;;;;;2069500;28;20496;-67
2022/02/20 05:42:27;;;;;;;4.22;3.83;;;;;;;;;;2072985;28;20121;-68
2022/02/20 05:43:47;;;;;;;5.30;3.97;;;;;;;;;;2068717;28;20037;-66
2022/02/20 05:45:06;;;;;;;4.43;4.00;;;;;;;;;;2069309;28;20495;-67
2022/02/20 05:46:25;;;;;;;4.45;4.00;;;;;;;;;;2071629;28;20038;-67
2022/02/20 05:47:44;;;;;;;4.43;4.05;;;;;;;;;;2071934;28;20030;-67
2022/02/20 05:49:04;;;;;;;11.60;4.32;;;;;;;;;;2068921;28;20057;-66
2022/02/20 05:50:23;;;;;;;5.40;4.90;;;;;;;;;;2072964;28;20030;-66
2022/02/20 05:51:42;;;;;;;4.50;4.10;;;;;;;;;;2068401;28;20038;-66
2022/02/20 05:53:01;;;;;;;6.45;4.43;;;;;;;;;;2068954;28;20022;-66
2022/02/20 05:54:20;;;;;;;10.15;4.25;;;;;;;;;;2071189;28;20539;-65
2022/02/20 05:55:39;;;;;;;10.55;3.80;;;;;;;;;;2068783;28;20026;-66
2022/02/20 05:56:58;;;;;;;7.85;3.78;;;;;;;;;;2068556;28;20038;-67
2022/02/20 05:58:17;;;;;;;5.05;3.80;;;;;;;;;;2073355;28;20025;-65
2022/02/20 05:59:36;;;;;;;6.45;3.53;;;;;;;;;;2070676;28;20033;-66
2022/02/20 06:00:55;;;;;;;7.05;4.13;;;;;;;;;;2071146;28;20030;-65
2022/02/20 06:02:14;;;;;;;24.83;4.45;;;;;;;;;;2065183;28;20145;-67
2022/02/20 06:03:32;;;;;;;4.07;3.75;;;;;;;;;;2066790;28;20492;-65
2022/02/20 06:04:51;;;;;;;4.68;3.75;;;;;;;;;;2065628;28;20073;-66
2022/02/20 06:06:10;;;;;;;12.43;5.00;;;;;;;;;;2068374;28;20992;-67
2022/02/20 06:07:29;;;;;;;7.68;3.97;;;;;;;;;;2068710;28;20496;-65
2022/02/20 06:08:48;;;;;;;17.25;4.85;;;;;;;;;;2068725;28;20489;-67
2022/02/20 06:10:08;;;;;;;16.60;4.38;;;;;;;;;;2066966;28;20028;-70
2022/02/20 06:11:27;;;;;;;61.80;6.35;;;;;;;;;;2065650;28;20085;-69
2022/02/20 06:12:46;;;;;;;20.20;5.00;;;;;;;;;;2067307;28;21044;-68
2022/02/20 06:14:05;;;;;;;8.18;3.00;;;;;;;;;;2067178;28;20027;-68
2022/02/20 06:15:24;;;;;;;12.73;4.65;;;;;;;;;;2068064;28;20030;-68
2022/02/20 06:16:43;;;;;;;5.95;4.20;;;;;;;;;;2068427;28;20030;-68
2022/02/20 06:18:02;;;;;;;9.80;4.70;;;;;;;;;;2067488;28;20503;-68
2022/02/20 06:19:21;;;;;;;6.10;4.32;;;;;;;;;;2063328;28;20442;-68
2022/02/20 06:20:40;;;;;;;10.55;4.90;;;;;;;;;;2064980;28;20113;-67
2022/02/20 06:21:59;;;;;;;6.93;4.05;;;;;;;;;;2066660;28;20105;-68
2022/02/20 06:23:18;;;;;;;8.95;4.35;;;;;;;;;;2067705;28;20073;-68
2022/02/20 06:24:37;;;;;;;6.78;3.58;;;;;;;;;;2067037;28;20034;-67
2022/02/20 06:25:56;;;;;;;16.08;4.80;;;;;;;;;;2067508;28;20112;-68
2022/02/20 06:27:15;;;;;;;9.65;4.45;;;;;;;;;;2067480;28;20104;-68
2022/02/20 06:28:34;;;;;;;6.03;4.75;;;;;;;;;;2067750;28;20057;-68
2022/02/20 06:29:53;;;;;;;4.68;3.97;;;;;;;;;;2067131;28;20423;-68
2022/02/20 06:31:12;;;;;;;6.20;4.57;;;;;;;;;;2068639;28;20031;-68
2022/02/20 06:32:31;;;;;;;11.00;3.72;;;;;;;;;;2067722;28;20034;-68
2022/02/20 06:33:52;;;;;;;8.07;4.55;;;;;;;;;;2068663;28;20480;-68
2022/02/20 06:35:11;;;;;;;5.38;4.20;;;;;;;;;;2067803;28;20038;-68
2022/02/20 06:36:30;;;;;;;7.18;4.40;;;;;;;;;;2065135;28;20559;-67
2022/02/20 06:37:48;;;;;;;5.47;4.53;;;;;;;;;;2067987;28;20073;-68
2022/02/20 06:39:07;;;;;;;7.22;4.25;;;;;;;;;;2068354;28;20042;-67
2022/02/20 06:40:26;;;;;;;5.93;4.43;;;;;;;;;;2068462;28;20140;-67
2022/02/20 06:41:45;;;;;;;5.68;4.50;;;;;;;;;;2066739;28;20034;-67
2022/02/20 06:43:04;;;;;;;4.97;4.55;;;;;;;;;;2066254;28;20034;-67
2022/02/20 06:44:23;;;;;;;6.53;4.20;;;;;;;;;;2068883;28;20045;-68
2022/02/20 06:45:42;;;;;;;5.53;4.47;;;;;;;;;;2069143;28;20035;-68
2022/02/20 06:47:01;;;;;;;5.05;4.25;;;;;;;;;;2068164;28;20038;-68
2022/02/20 06:48:20;;;;;;;8.45;4.00;;;;;;;;;;2065736;28;20034;-70
2022/02/20 06:49:39;;;;;;;6.80;4.20;;;;;;;;;;2064736;28;20034;-70
2022/02/20 06:50:58;;;;;;;6.13;4.38;;;;;;;;;;2068774;28;20030;-68
2022/02/20 06:52:17;;;;;;;5.30;4.07;;;;;;;;;;2068175;28;20026;-68
2022/02/20 06:53:36;;;;;;;4.25;3.40;;;;;;;;;;2069094;28;20029;-68
2022/02/20 06:54:55;;;;;;;5.70;3.30;;;;;;;;;;2067563;28;20023;-67
2022/02/20 06:56:14;;;;;;;4.03;3.70;;;;;;;;;;2068190;28;20400;-68
2022/02/20 06:57:35;;;;;;;11.05;3.97;;;;;;;;;;2071970;28;20121;-67
2022/02/20 06:58:53;;;;;;;4.22;3.78;;;;;;;;;;2068050;28;20113;-67
2022/02/20 07:00:13;;;;;;;5.57;3.20;;;;;;;;;;2067336;28;20074;-67
2022/02/20 07:01:32;;;;;;;4.50;3.60;;;;;;;;;;2068303;28;20508;-67
2022/02/20 07:02:51;;;;;;;4.15;3.33;;;;;;;;;;2066142;28;20071;-67
2022/02/20 07:04:11;;;;;;;4.00;3.47;;;;;;;;;;2070051;28;20034;-68
2022/02/20 07:05:31;;;;;;;5.32;3.50;;;;;;;;;;2069269;28;20034;-67
2022/02/20 07:06:49;;;;;;;5.15;3.65;;;;;;;;;;2067921;28;20404;-67
2022/02/20 07:08:09;;;;;;;4.72;3.40;;;;;;;;;;2068840;28;20023;-67
2022/02/20 07:09:27;;;;;;;3.97;3.55;;;;;;;;;;2069436;28;20045;-68
2022/02/20 07:10:46;;;;;;;5.15;3.90;;;;;;;;;;2066958;28;20030;-68
2022/02/20 07:12:05;;;;;;;3.83;3.47;;;;;;;;;;2065476;28;20061;-68
2022/02/20 07:13:25;;;;;;;3.90;3.50;;;;;;;;;;2068216;28;20061;-68
2022/02/20 07:14:44;;;;;;;9.32;3.38;;;;;;;;;;2069418;28;20038;-68
2022/02/20 07:16:03;;;;;;;4.18;3.25;;;;;;;;;;2067766;28;20053;-68
2022/02/20 07:17:21;;;;;;;3.35;3.05;;;;;;;;;;2067889;28;20034;-68
2022/02/20 07:18:40;;;;;;;15.68;3.38;;;;;;;;;;2067182;28;20129;-69
2022/02/20 07:20:03;;;;;;;5.28;3.40;;;;;;;;;;2067460;28;20026;-68
2022/02/20 07:21:24;;;;;;;3.95;3.63;;;;;;;;;;2063180;28;20022;-68
2022/02/20 07:22:44;;;;;;;4.45;3.45;;;;;;;;;;2066097;28;20018;-69
2022/02/20 07:24:03;;;;;;;4.95;3.72;;;;;;;;;;2068407;28;20039;-69
2022/02/20 07:25:23;;;;;;;3.97;3.67;;;;;;;;;;2064622;28;20042;-69
2022/02/20 07:26:41;;;;;;;5.25;3.97;;;;;;;;;;2068156;28;20189;-70
2022/02/20 07:28:00;;;;;;;4.53;3.92;;;;;;;;;;2065151;28;20027;-70
2022/02/20 07:29:19;;;;;;;5.20;3.60;;;;;;;;;;2068302;28;20449;-69
2022/02/20 07:30:38;;;;;;;6.18;3.28;;;;;;;;;;2067783;28;20029;-69
2022/02/20 07:31:57;;;;;;;6.70;3.13;;;;;;;;;;2067191;28;20030;-69
2022/02/20 07:33:16;;;;;;;4.78;3.58;;;;;;;;;;2107480;28;20557;-69
2022/02/20 07:34:35;;;;;;;3.90;3.47;;;;;;;;;;2083501;28;20030;-68
2022/02/20 07:35:54;;;;;;;3.25;2.83;;;;;;;;;;2066415;28;20022;-69
2022/02/20 07:37:13;;;;;;;3.10;2.80;;;;;;;;;;2068232;28;20392;-69
2022/02/20 07:38:32;;;;;;;3.33;3.00;;;;;;;;;;2066822;28;20058;-68
2022/02/20 07:39:51;;;;;;;3.03;2.72;;;;;;;;;;2067422;28;20081;-69
2022/02/20 07:41:10;;;;;;;6.45;3.00;;;;;;;;;;2068131;28;20022;-69
2022/02/20 07:42:29;;;;;;;4.72;3.10;;;;;;;;;;2067764;28;20121;-69
2022/02/20 07:43:49;;;;;;;3.30;3.10;;;;;;;;;;2066157;28;20019;-69
2022/02/20 07:45:09;;;;;;;6.07;3.40;;;;;;;;;;2066313;28;20034;-68
2022/02/20 07:46:28;;;;;;;4.03;2.67;;;;;;;;;;2068541;28;20038;-69
2022/02/20 07:47:52;;;;;;;2.80;2.60;;;;;;;;;;2067512;28;20112;-69
2022/02/20 07:49:11;;;;;;;3.90;2.50;;;;;;;;;;2067203;28;20038;-69
2022/02/20 07:50:32;;;;;;;3.00;2.65;;;;;;;;;;2068532;28;20493;-69
2022/02/20 07:51:51;;;;;;;3.33;3.03;;;;;;;;;;2067913;28;20034;-69
2022/02/20 07:53:10;;;;;;;3.17;2.88;;;;;;;;;;2066777;28;20034;-70
2022/02/20 07:54:29;;;;;;;3.08;2.88;;;;;;;;;;2066449;28;20437;-69